createdAt,value
2024-02-24T00:09:49.331Z,7.62
2024-02-24T00:19:56.960Z,7.68
2024-02-24T00:30:04.343Z,7.70
2024-02-24T00:40:13.647Z,7.72
2024-02-24T00:50:20.650Z,7.88
2024-02-24T01:00:27.856Z,8.07
2024-02-24T01:10:34.993Z,8.16
2024-02-24T01:20:42.352Z,8.15
2024-02-24T01:30:50.349Z,8.09
2024-02-24T01:40:57.591Z,8.13
2024-02-24T01:51:05.687Z,8.19
2024-02-24T02:01:12.956Z,8.18
2024-02-24T02:11:20.406Z,8.07
2024-02-24T02:21:28.796Z,7.94
2024-02-24T02:31:35.934Z,7.89
2024-02-24T02:41:43.011Z,7.86
2024-02-24T02:51:50.089Z,7.83
2024-02-24T03:02:00.160Z,7.80
2024-02-24T03:12:07.482Z,7.79
2024-02-24T03:22:14.775Z,7.83
2024-02-24T03:32:22.145Z,7.90
2024-02-24T03:42:29.175Z,7.98
2024-02-24T03:52:36.033Z,7.98
2024-02-24T04:02:41.684Z,8.00
2024-02-24T04:12:49.214Z,8.07
2024-02-24T04:22:57.015Z,8.10
2024-02-24T04:33:04.265Z,8.07
2024-02-24T04:43:11.384Z,8.04
2024-02-24T04:53:18.440Z,8.10
2024-02-24T05:03:25.677Z,8.15
2024-02-24T05:13:33.400Z,8.18
2024-02-24T05:23:40.705Z,8.23
2024-02-24T05:33:48.963Z,8.29
2024-02-24T05:43:55.931Z,8.35
2024-02-24T05:54:02.961Z,8.32
2024-02-24T06:04:10.033Z,8.13
2024-02-24T06:14:20.124Z,7.85
2024-02-24T06:24:27.914Z,7.58
2024-02-24T06:34:35.525Z,7.37
2024-02-24T06:44:43.052Z,7.21
2024-02-24T06:54:51.585Z,7.12
2024-02-24T07:04:58.921Z,7.06
2024-02-24T07:15:05.437Z,6.80
2024-02-24T07:25:12.637Z,6.47
2024-02-24T07:35:17.612Z,6.25
2024-02-24T07:45:26.851Z,6.22
2024-02-24T07:55:32.399Z,6.26
2024-02-24T08:05:40.066Z,6.31
2024-02-24T08:15:47.263Z,6.41
2024-02-24T08:25:56.530Z,6.24
2024-02-24T08:36:04.562Z,6.28
2024-02-24T08:46:12.416Z,6.55
2024-02-24T08:56:20.424Z,6.72
2024-02-24T09:06:27.022Z,6.50
2024-02-24T09:16:34.094Z,6.41
2024-02-24T09:26:41.521Z,6.45
2024-02-24T09:36:48.738Z,6.68
2024-02-24T09:46:56.969Z,7.04
2024-02-24T09:57:05.564Z,7.15
2024-02-24T10:07:11.756Z,7.16
2024-02-24T10:17:18.081Z,7.07
2024-02-24T10:27:25.339Z,7.07
2024-02-24T10:37:48.539Z,7.03
2024-02-24T10:48:01.534Z,7.31
2024-02-24T10:58:07.729Z,7.32
2024-02-24T11:08:45.362Z,7.34
2024-02-24T11:18:58.908Z,7.78
2024-02-24T11:29:09.317Z,8.55
2024-02-24T11:39:16.604Z,8.60
2024-02-24T11:49:22.807Z,8.48
2024-02-24T11:59:31.638Z,8.70
2024-02-24T12:09:38.706Z,9.02
2024-02-24T12:19:47.481Z,9.13
2024-02-24T12:29:54.732Z,8.99
2024-02-24T12:40:02.145Z,8.97
2024-02-24T12:50:07.333Z,9.34
2024-02-24T13:00:17.434Z,9.56
2024-02-24T13:10:25.083Z,9.37
2024-02-24T13:20:32.489Z,9.33
2024-02-24T13:30:39.922Z,9.53
2024-02-24T13:40:45.827Z,9.59
2024-02-24T13:50:52.971Z,9.48
2024-02-24T14:01:00.547Z,9.53
2024-02-24T14:11:08.326Z,9.48
2024-02-24T14:21:15.437Z,9.59
2024-02-24T14:31:21.761Z,9.58
2024-02-24T14:41:29.357Z,9.51
2024-02-24T14:51:36.717Z,9.45
2024-02-24T15:01:43.798Z,9.15
2024-02-24T15:11:50.950Z,8.89
2024-02-24T15:21:58.293Z,8.69
2024-02-24T15:32:06.927Z,8.50
2024-02-24T15:42:14.087Z,8.37
2024-02-24T15:52:21.678Z,8.18
2024-02-24T16:02:29.238Z,7.88
2024-02-24T16:12:35.279Z,7.58
2024-02-24T16:22:42.487Z,7.28
2024-02-24T16:32:48.555Z,7.04
2024-02-24T16:42:56.603Z,6.94
2024-02-24T16:53:03.280Z,6.81
2024-02-24T17:03:09.655Z,6.48
2024-02-24T17:13:16.187Z,6.16
2024-02-24T17:23:23.447Z,5.96
2024-02-24T17:33:30.687Z,5.80
2024-02-24T17:43:37.797Z,5.63
2024-02-24T17:53:47.099Z,5.40
2024-02-24T18:03:54.367Z,5.10
2024-02-24T18:14:01.788Z,4.91
2024-02-24T18:24:08.212Z,4.84
2024-02-24T18:34:15.076Z,4.83
2024-02-24T18:44:21.894Z,4.80
2024-02-24T18:54:30.564Z,4.71
2024-02-24T19:04:37.933Z,4.75
2024-02-24T19:14:51.834Z,4.56
2024-02-24T19:25:02.540Z,4.58
2024-02-24T19:35:10.583Z,4.63
2024-02-24T19:45:16.851Z,4.79
2024-02-24T19:55:23.818Z,4.74
2024-02-24T20:05:29.769Z,4.64
2024-02-24T20:15:36.923Z,4.58
2024-02-24T20:25:44.223Z,4.46
2024-02-24T20:35:51.601Z,4.37
2024-02-24T20:45:59.110Z,4.34
2024-02-24T20:56:07.196Z,4.25
2024-02-24T21:06:15.187Z,4.20
2024-02-24T21:16:22.568Z,4.02
2024-02-24T21:26:29.839Z,3.91
2024-02-24T21:36:37.150Z,3.88
2024-02-24T21:46:44.461Z,3.84
2024-02-24T21:56:52.111Z,3.80
2024-02-24T22:06:59.562Z,3.77
2024-02-24T22:17:05.339Z,3.85
2024-02-24T22:27:12.552Z,3.93
2024-02-24T22:37:19.054Z,4.04
2024-02-24T22:47:25.179Z,4.07
2024-02-24T22:57:32.456Z,3.91
2024-02-24T23:07:39.717Z,3.79
2024-02-24T23:17:45.902Z,3.75
2024-02-24T23:27:53.118Z,3.78
2024-02-24T23:37:59.048Z,3.85
2024-02-24T23:48:05.576Z,3.79
2024-02-24T23:58:12.670Z,3.64
